sensor_id;sensor_type;location;lat;lon;timestamp;P1;durP1;ratioP1;P2;durP2;ratioP2
2049;SDS011;8478;49.208;8.806;2022-09-28T00:01:08;3.03;;;2.77;;
2049;SDS011;8478;49.208;8.806;2022-09-28T00:03:38;3.13;;;2.93;;
2049;SDS011;8478;49.208;8.806;2022-09-28T00:06:05;3.33;;;3.13;;
2049;SDS011;8478;49.208;8.806;2022-09-28T00:08:33;2.87;;;2.67;;
2049;SDS011;8478;49.208;8.806;2022-09-28T00:11:00;3.17;;;2.50;;
2049;SDS011;8478;49.208;8.806;2022-09-28T00:13:26;2.30;;;2.10;;
2049;SDS011;8478;49.208;8.806;2022-09-28T00:18:29;2.43;;;2.23;;
2049;SDS011;8478;49.208;8.806;2022-09-28T00:20:59;3.17;;;2.33;;
2049;SDS011;8478;49.208;8.806;2022-09-28T00:23:29;2.73;;;2.53;;
2049;SDS011;8478;49.208;8.806;2022-09-28T00:25:55;2.50;;;2.30;;
2049;SDS011;8478;49.208;8.806;2022-09-28T00:28:29;2.40;;;2.20;;
2049;SDS011;8478;49.208;8.806;2022-09-28T00:30:55;2.30;;;2.10;;
2049;SDS011;8478;49.208;8.806;2022-09-28T00:33:22;2.40;;;2.20;;
2049;SDS011;8478;49.208;8.806;2022-09-28T00:35:55;2.60;;;2.40;;
2049;SDS011;8478;49.208;8.806;2022-09-28T00:38:27;3.43;;;2.17;;
2049;SDS011;8478;49.208;8.806;2022-09-28T00:40:54;2.10;;;1.90;;
2049;SDS011;8478;49.208;8.806;2022-09-28T00:43:20;2.70;;;2.33;;
2049;SDS011;8478;49.208;8.806;2022-09-28T00:45:49;3.00;;;1.83;;
2049;SDS011;8478;49.208;8.806;2022-09-28T00:48:21;3.40;;;1.93;;
2049;SDS011;8478;49.208;8.806;2022-09-28T00:50:48;2.33;;;2.13;;
2049;SDS011;8478;49.208;8.806;2022-09-28T00:53:18;2.63;;;2.27;;
2049;SDS011;8478;49.208;8.806;2022-09-28T00:55:50;2.70;;;2.50;;
2049;SDS011;8478;49.208;8.806;2022-09-28T00:58:20;2.20;;;2.10;;
2049;SDS011;8478;49.208;8.806;2022-09-28T01:00:49;3.53;;;1.90;;
2049;SDS011;8478;49.208;8.806;2022-09-28T01:03:15;1.90;;;1.77;;
2049;SDS011;8478;49.208;8.806;2022-09-28T01:05:41;2.70;;;1.90;;
2049;SDS011;8478;49.208;8.806;2022-09-28T01:08:08;1.90;;;1.60;;
2049;SDS011;8478;49.208;8.806;2022-09-28T01:10:35;1.57;;;1.47;;
2049;SDS011;8478;49.208;8.806;2022-09-28T01:13:03;1.60;;;1.50;;
2049;SDS011;8478;49.208;8.806;2022-09-28T01:15:29;1.70;;;1.60;;
2049;SDS011;8478;49.208;8.806;2022-09-28T01:18:12;1.87;;;1.50;;
2049;SDS011;8478;49.208;8.806;2022-09-28T01:23:29;1.97;;;1.40;;
2049;SDS011;8478;49.208;8.806;2022-09-28T01:28:40;2.43;;;1.50;;
2049;SDS011;8478;49.208;8.806;2022-09-28T01:31:12;1.40;;;1.30;;
2049;SDS011;8478;49.208;8.806;2022-09-28T01:33:47;1.47;;;1.37;;
2049;SDS011;8478;49.208;8.806;2022-09-28T01:36:26;1.37;;;1.27;;
2049;SDS011;8478;49.208;8.806;2022-09-28T01:39:08;2.10;;;1.37;;
2049;SDS011;8478;49.208;8.806;2022-09-28T01:41:39;2.10;;;1.60;;
2049;SDS011;8478;49.208;8.806;2022-09-28T01:44:07;3.10;;;1.60;;
2049;SDS011;8478;49.208;8.806;2022-09-28T01:46:38;2.07;;;1.50;;
2049;SDS011;8478;49.208;8.806;2022-09-28T01:49:10;1.77;;;1.67;;
2049;SDS011;8478;49.208;8.806;2022-09-28T01:54:41;1.67;;;1.30;;
2049;SDS011;8478;49.208;8.806;2022-09-28T01:57:31;1.40;;;1.30;;
2049;SDS011;8478;49.208;8.806;2022-09-28T02:00:12;1.50;;;1.27;;
2049;SDS011;8478;49.208;8.806;2022-09-28T02:02:42;1.90;;;1.60;;
2049;SDS011;8478;49.208;8.806;2022-09-28T02:05:19;2.03;;;1.43;;
2049;SDS011;8478;49.208;8.806;2022-09-28T02:07:56;1.63;;;1.40;;
2049;SDS011;8478;49.208;8.806;2022-09-28T02:10:32;2.03;;;1.23;;
2049;SDS011;8478;49.208;8.806;2022-09-28T02:13:20;2.90;;;1.73;;
2049;SDS011;8478;49.208;8.806;2022-09-28T02:15:57;3.60;;;1.40;;
2049;SDS011;8478;49.208;8.806;2022-09-28T02:18:34;2.40;;;1.50;;
2049;SDS011;8478;49.208;8.806;2022-09-28T02:21:19;1.90;;;1.73;;
2049;SDS011;8478;49.208;8.806;2022-09-28T02:23:50;1.57;;;1.47;;
2049;SDS011;8478;49.208;8.806;2022-09-28T02:26:21;1.37;;;1.27;;
2049;SDS011;8478;49.208;8.806;2022-09-28T02:28:53;1.97;;;1.40;;
2049;SDS011;8478;49.208;8.806;2022-09-28T02:31:19;2.00;;;1.57;;
2049;SDS011;8478;49.208;8.806;2022-09-28T02:33:45;2.23;;;1.40;;
2049;SDS011;8478;49.208;8.806;2022-09-28T02:36:11;1.97;;;1.30;;
2049;SDS011;8478;49.208;8.806;2022-09-28T02:38:38;2.10;;;1.60;;
2049;SDS011;8478;49.208;8.806;2022-09-28T02:41:15;1.50;;;1.40;;
2049;SDS011;8478;49.208;8.806;2022-09-28T02:47:06;1.50;;;1.40;;
2049;SDS011;8478;49.208;8.806;2022-09-28T02:58:15;1.70;;;1.60;;
2049;SDS011;8478;49.208;8.806;2022-09-28T03:03:32;1.70;;;1.60;;
2049;SDS011;8478;49.208;8.806;2022-09-28T03:06:14;1.40;;;1.27;;
2049;SDS011;8478;49.208;8.806;2022-09-28T03:08:53;2.93;;;1.60;;
2049;SDS011;8478;49.208;8.806;2022-09-28T03:11:29;2.90;;;1.70;;
2049;SDS011;8478;49.208;8.806;2022-09-28T03:14:00;1.63;;;1.53;;
2049;SDS011;8478;49.208;8.806;2022-09-28T03:16:28;2.00;;;1.70;;
2049;SDS011;8478;49.208;8.806;2022-09-28T03:18:56;1.63;;;1.53;;
2049;SDS011;8478;49.208;8.806;2022-09-28T03:21:22;2.23;;;1.60;;
2049;SDS011;8478;49.208;8.806;2022-09-28T03:23:47;2.80;;;1.40;;
2049;SDS011;8478;49.208;8.806;2022-09-28T03:26:13;3.87;;;1.80;;
2049;SDS011;8478;49.208;8.806;2022-09-28T03:28:40;1.50;;;1.40;;
2049;SDS011;8478;49.208;8.806;2022-09-28T03:31:06;1.70;;;1.60;;
2049;SDS011;8478;49.208;8.806;2022-09-28T03:33:32;2.20;;;2.00;;
2049;SDS011;8478;49.208;8.806;2022-09-28T03:35:58;3.00;;;2.37;;
2049;SDS011;8478;49.208;8.806;2022-09-28T03:38:24;2.93;;;2.30;;
2049;SDS011;8478;49.208;8.806;2022-09-28T03:40:53;2.33;;;2.00;;
2049;SDS011;8478;49.208;8.806;2022-09-28T03:43:20;2.00;;;1.80;;
2049;SDS011;8478;49.208;8.806;2022-09-28T03:45:52;1.93;;;1.60;;
2049;SDS011;8478;49.208;8.806;2022-09-28T03:48:26;3.10;;;2.30;;
2049;SDS011;8478;49.208;8.806;2022-09-28T03:50:54;2.30;;;1.90;;
2049;SDS011;8478;49.208;8.806;2022-09-28T03:53:20;1.73;;;1.63;;
2049;SDS011;8478;49.208;8.806;2022-09-28T03:55:46;1.90;;;1.70;;
2049;SDS011;8478;49.208;8.806;2022-09-28T03:58:12;1.70;;;1.60;;
2049;SDS011;8478;49.208;8.806;2022-09-28T04:00:38;2.13;;;1.90;;
2049;SDS011;8478;49.208;8.806;2022-09-28T04:03:04;2.17;;;1.43;;
2049;SDS011;8478;49.208;8.806;2022-09-28T04:05:29;2.03;;;1.70;;
2049;SDS011;8478;49.208;8.806;2022-09-28T04:07:55;1.93;;;1.73;;
2049;SDS011;8478;49.208;8.806;2022-09-28T04:10:22;2.10;;;1.90;;
2049;SDS011;8478;49.208;8.806;2022-09-28T04:12:48;2.00;;;1.53;;
2049;SDS011;8478;49.208;8.806;2022-09-28T04:15:15;2.00;;;1.80;;
2049;SDS011;8478;49.208;8.806;2022-09-28T04:17:41;1.83;;;1.70;;
2049;SDS011;8478;49.208;8.806;2022-09-28T04:20:08;2.10;;;1.60;;
2049;SDS011;8478;49.208;8.806;2022-09-28T04:22:34;1.40;;;1.30;;
2049;SDS011;8478;49.208;8.806;2022-09-28T04:25:01;2.20;;;1.73;;
2049;SDS011;8478;49.208;8.806;2022-09-28T04:27:28;1.73;;;1.63;;
2049;SDS011;8478;49.208;8.806;2022-09-28T04:30:12;1.80;;;1.60;;
2049;SDS011;8478;49.208;8.806;2022-09-28T04:32:38;3.00;;;1.53;;
2049;SDS011;8478;49.208;8.806;2022-09-28T04:35:04;1.60;;;1.50;;
2049;SDS011;8478;49.208;8.806;2022-09-28T04:37:30;1.80;;;1.70;;
2049;SDS011;8478;49.208;8.806;2022-09-28T04:39:56;3.80;;;2.10;;
2049;SDS011;8478;49.208;8.806;2022-09-28T04:42:21;2.13;;;2.03;;
2049;SDS011;8478;49.208;8.806;2022-09-28T04:44:47;2.20;;;2.00;;
2049;SDS011;8478;49.208;8.806;2022-09-28T04:47:13;3.47;;;1.93;;
2049;SDS011;8478;49.208;8.806;2022-09-28T04:49:38;2.33;;;1.60;;
2049;SDS011;8478;49.208;8.806;2022-09-28T04:52:04;1.70;;;1.60;;
2049;SDS011;8478;49.208;8.806;2022-09-28T04:54:30;1.83;;;1.70;;
2049;SDS011;8478;49.208;8.806;2022-09-28T04:56:56;2.60;;;1.90;;
2049;SDS011;8478;49.208;8.806;2022-09-28T04:59:22;2.50;;;1.77;;
2049;SDS011;8478;49.208;8.806;2022-09-28T05:01:48;2.20;;;2.00;;
2049;SDS011;8478;49.208;8.806;2022-09-28T05:04:14;2.10;;;1.83;;
2049;SDS011;8478;49.208;8.806;2022-09-28T05:06:40;1.73;;;1.63;;
2049;SDS011;8478;49.208;8.806;2022-09-28T05:09:05;1.80;;;1.70;;
2049;SDS011;8478;49.208;8.806;2022-09-28T05:11:33;3.03;;;2.07;;
2049;SDS011;8478;49.208;8.806;2022-09-28T05:13:59;2.53;;;2.03;;
2049;SDS011;8478;49.208;8.806;2022-09-28T05:16:25;3.63;;;2.10;;
2049;SDS011;8478;49.208;8.806;2022-09-28T05:18:55;2.23;;;1.60;;
2049;SDS011;8478;49.208;8.806;2022-09-28T05:21:21;2.50;;;2.07;;
2049;SDS011;8478;49.208;8.806;2022-09-28T05:23:49;2.37;;;1.87;;
2049;SDS011;8478;49.208;8.806;2022-09-28T05:26:15;2.40;;;2.07;;
2049;SDS011;8478;49.208;8.806;2022-09-28T05:28:41;3.13;;;1.73;;
2049;SDS011;8478;49.208;8.806;2022-09-28T05:31:07;3.33;;;1.87;;
2049;SDS011;8478;49.208;8.806;2022-09-28T05:33:33;1.77;;;1.67;;
2049;SDS011;8478;49.208;8.806;2022-09-28T05:35:58;2.30;;;2.10;;
2049;SDS011;8478;49.208;8.806;2022-09-28T05:38:24;2.17;;;1.97;;
2049;SDS011;8478;49.208;8.806;2022-09-28T05:40:50;1.90;;;1.80;;
2049;SDS011;8478;49.208;8.806;2022-09-28T05:43:16;2.03;;;1.83;;
2049;SDS011;8478;49.208;8.806;2022-09-28T05:45:42;2.00;;;1.80;;
2049;SDS011;8478;49.208;8.806;2022-09-28T05:48:07;2.10;;;1.83;;
2049;SDS011;8478;49.208;8.806;2022-09-28T05:50:33;3.37;;;2.30;;
2049;SDS011;8478;49.208;8.806;2022-09-28T05:53:00;2.27;;;1.90;;
2049;SDS011;8478;49.208;8.806;2022-09-28T05:55:27;3.67;;;2.23;;
2049;SDS011;8478;49.208;8.806;2022-09-28T05:57:56;2.70;;;2.23;;
2049;SDS011;8478;49.208;8.806;2022-09-28T06:00:23;3.50;;;1.90;;
2049;SDS011;8478;49.208;8.806;2022-09-28T06:02:58;3.33;;;2.27;;
2049;SDS011;8478;49.208;8.806;2022-09-28T06:05:26;2.53;;;2.33;;
2049;SDS011;8478;49.208;8.806;2022-09-28T06:07:55;2.40;;;1.90;;
2049;SDS011;8478;49.208;8.806;2022-09-28T06:10:25;3.33;;;3.00;;
2049;SDS011;8478;49.208;8.806;2022-09-28T06:12:52;2.70;;;2.47;;
2049;SDS011;8478;49.208;8.806;2022-09-28T06:15:19;2.03;;;1.93;;
2049;SDS011;8478;49.208;8.806;2022-09-28T06:18:00;4.23;;;1.90;;
2049;SDS011;8478;49.208;8.806;2022-09-28T06:20:28;3.40;;;2.23;;
2049;SDS011;8478;49.208;8.806;2022-09-28T06:22:56;2.43;;;2.23;;
2049;SDS011;8478;49.208;8.806;2022-09-28T06:25:22;2.20;;;2.00;;
2049;SDS011;8478;49.208;8.806;2022-09-28T06:27:55;2.77;;;2.20;;
2049;SDS011;8478;49.208;8.806;2022-09-28T06:30:26;2.40;;;2.10;;
2049;SDS011;8478;49.208;8.806;2022-09-28T06:32:57;2.03;;;1.93;;
2049;SDS011;8478;49.208;8.806;2022-09-28T06:35:25;3.60;;;2.80;;
2049;SDS011;8478;49.208;8.806;2022-09-28T06:37:54;2.03;;;1.93;;
2049;SDS011;8478;49.208;8.806;2022-09-28T06:40:20;2.70;;;2.20;;
2049;SDS011;8478;49.208;8.806;2022-09-28T06:42:56;4.00;;;2.87;;
2049;SDS011;8478;49.208;8.806;2022-09-28T06:45:24;3.63;;;2.40;;
2049;SDS011;8478;49.208;8.806;2022-09-28T06:47:54;2.63;;;2.43;;
2049;SDS011;8478;49.208;8.806;2022-09-28T06:50:25;2.53;;;2.33;;
2049;SDS011;8478;49.208;8.806;2022-09-28T06:52:53;3.80;;;2.70;;
2049;SDS011;8478;49.208;8.806;2022-09-28T06:55:20;2.73;;;2.13;;
2049;SDS011;8478;49.208;8.806;2022-09-28T06:57:46;2.37;;;2.13;;
2049;SDS011;8478;49.208;8.806;2022-09-28T07:00:12;3.47;;;2.37;;
2049;SDS011;8478;49.208;8.806;2022-09-28T07:02:38;3.00;;;2.33;;
2049;SDS011;8478;49.208;8.806;2022-09-28T07:05:04;2.50;;;2.27;;
2049;SDS011;8478;49.208;8.806;2022-09-28T07:07:32;2.67;;;2.43;;
2049;SDS011;8478;49.208;8.806;2022-09-28T07:09:58;2.53;;;2.30;;
2049;SDS011;8478;49.208;8.806;2022-09-28T07:12:23;2.50;;;2.20;;
2049;SDS011;8478;49.208;8.806;2022-09-28T07:14:50;3.30;;;2.40;;
2049;SDS011;8478;49.208;8.806;2022-09-28T07:17:21;3.20;;;2.60;;
2049;SDS011;8478;49.208;8.806;2022-09-28T07:19:48;4.63;;;2.60;;
2049;SDS011;8478;49.208;8.806;2022-09-28T07:22:20;2.77;;;2.50;;
2049;SDS011;8478;49.208;8.806;2022-09-28T07:24:46;2.70;;;2.47;;
2049;SDS011;8478;49.208;8.806;2022-09-28T07:27:12;5.30;;;3.00;;
2049;SDS011;8478;49.208;8.806;2022-09-28T07:29:38;3.57;;;2.80;;
2049;SDS011;8478;49.208;8.806;2022-09-28T07:32:04;2.77;;;2.57;;
2049;SDS011;8478;49.208;8.806;2022-09-28T07:34:29;3.60;;;2.67;;
2049;SDS011;8478;49.208;8.806;2022-09-28T07:36:55;2.50;;;2.30;;
2049;SDS011;8478;49.208;8.806;2022-09-28T07:39:23;4.67;;;2.57;;
2049;SDS011;8478;49.208;8.806;2022-09-28T07:41:48;4.07;;;2.30;;
2049;SDS011;8478;49.208;8.806;2022-09-28T07:44:14;2.83;;;2.63;;
2049;SDS011;8478;49.208;8.806;2022-09-28T07:46:41;4.10;;;2.60;;
2049;SDS011;8478;49.208;8.806;2022-09-28T07:49:07;2.57;;;2.37;;
2049;SDS011;8478;49.208;8.806;2022-09-28T07:51:33;3.60;;;2.60;;
2049;SDS011;8478;49.208;8.806;2022-09-28T07:53:59;3.20;;;2.90;;
2049;SDS011;8478;49.208;8.806;2022-09-28T07:56:24;3.30;;;2.60;;
2049;SDS011;8478;49.208;8.806;2022-09-28T07:58:50;4.33;;;2.60;;
2049;SDS011;8478;49.208;8.806;2022-09-28T08:01:16;2.70;;;2.50;;
2049;SDS011;8478;49.208;8.806;2022-09-28T08:03:43;3.10;;;2.80;;
2049;SDS011;8478;49.208;8.806;2022-09-28T08:06:12;2.97;;;2.67;;
2049;SDS011;8478;49.208;8.806;2022-09-28T08:08:39;4.73;;;2.83;;
2049;SDS011;8478;49.208;8.806;2022-09-28T08:11:09;2.63;;;2.30;;
2049;SDS011;8478;49.208;8.806;2022-09-28T08:13:41;3.00;;;2.43;;
2049;SDS011;8478;49.208;8.806;2022-09-28T08:16:08;3.00;;;2.47;;
2049;SDS011;8478;49.208;8.806;2022-09-28T08:18:34;2.83;;;2.63;;
2049;SDS011;8478;49.208;8.806;2022-09-28T08:21:04;3.50;;;2.67;;
2049;SDS011;8478;49.208;8.806;2022-09-28T08:23:48;3.80;;;2.87;;
2049;SDS011;8478;49.208;8.806;2022-09-28T08:26:14;5.90;;;2.87;;
2049;SDS011;8478;49.208;8.806;2022-09-28T08:28:40;3.60;;;2.73;;
2049;SDS011;8478;49.208;8.806;2022-09-28T08:31:07;3.40;;;2.77;;
2049;SDS011;8478;49.208;8.806;2022-09-28T08:33:34;2.90;;;2.60;;
2049;SDS011;8478;49.208;8.806;2022-09-28T08:36:00;4.00;;;2.33;;
2049;SDS011;8478;49.208;8.806;2022-09-28T08:38:27;2.93;;;2.53;;
2049;SDS011;8478;49.208;8.806;2022-09-28T08:46:41;2.63;;;2.40;;
2049;SDS011;8478;49.208;8.806;2022-09-28T08:49:15;2.73;;;2.43;;
2049;SDS011;8478;49.208;8.806;2022-09-28T08:54:18;2.53;;;2.33;;
2049;SDS011;8478;49.208;8.806;2022-09-28T08:56:53;2.77;;;2.57;;
2049;SDS011;8478;49.208;8.806;2022-09-28T09:00:04;3.27;;;2.97;;
2049;SDS011;8478;49.208;8.806;2022-09-28T09:02:25;2.50;;;2.30;;
2049;SDS011;8478;49.208;8.806;2022-09-28T09:04:53;2.23;;;2.10;;
2049;SDS011;8478;49.208;8.806;2022-09-28T09:07:25;4.50;;;2.67;;
2049;SDS011;8478;49.208;8.806;2022-09-28T09:10:04;2.90;;;2.57;;
2049;SDS011;8478;49.208;8.806;2022-09-28T09:20:56;2.60;;;2.40;;
2049;SDS011;8478;49.208;8.806;2022-09-28T09:26:17;2.87;;;2.57;;
2049;SDS011;8478;49.208;8.806;2022-09-28T09:39:48;2.90;;;2.70;;
2049;SDS011;8478;49.208;8.806;2022-09-28T09:47:23;2.77;;;1.93;;
2049;SDS011;8478;49.208;8.806;2022-09-28T09:50:04;3.20;;;2.40;;
2049;SDS011;8478;49.208;8.806;2022-09-28T09:55:21;4.23;;;2.70;;
2049;SDS011;8478;49.208;8.806;2022-09-28T09:57:53;2.67;;;2.13;;
2049;SDS011;8478;49.208;8.806;2022-09-28T10:00:26;5.13;;;2.90;;
2049;SDS011;8478;49.208;8.806;2022-09-28T10:02:52;3.07;;;2.57;;
2049;SDS011;8478;49.208;8.806;2022-09-28T10:05:23;2.60;;;2.40;;
2049;SDS011;8478;49.208;8.806;2022-09-28T10:10:36;2.50;;;2.17;;
2049;SDS011;8478;49.208;8.806;2022-09-28T10:13:07;4.07;;;2.50;;
2049;SDS011;8478;49.208;8.806;2022-09-28T10:15:33;2.97;;;2.50;;
2049;SDS011;8478;49.208;8.806;2022-09-28T10:18:00;3.50;;;3.00;;
2049;SDS011;8478;49.208;8.806;2022-09-28T10:20:32;3.20;;;2.40;;
2049;SDS011;8478;49.208;8.806;2022-09-28T10:23:02;2.27;;;2.07;;
2049;SDS011;8478;49.208;8.806;2022-09-28T10:25:31;2.70;;;2.50;;
2049;SDS011;8478;49.208;8.806;2022-09-28T10:28:00;3.73;;;2.63;;
2049;SDS011;8478;49.208;8.806;2022-09-28T10:30:30;2.83;;;2.53;;
2049;SDS011;8478;49.208;8.806;2022-09-28T10:33:25;2.37;;;2.13;;
2049;SDS011;8478;49.208;8.806;2022-09-28T10:35:53;2.60;;;2.40;;
2049;SDS011;8478;49.208;8.806;2022-09-28T10:38:19;3.60;;;2.70;;
2049;SDS011;8478;49.208;8.806;2022-09-28T10:40:47;2.70;;;2.50;;
2049;SDS011;8478;49.208;8.806;2022-09-28T10:46:12;3.53;;;2.50;;
2049;SDS011;8478;49.208;8.806;2022-09-28T10:51:19;3.60;;;2.40;;
2049;SDS011;8478;49.208;8.806;2022-09-28T10:54:03;3.00;;;2.80;;
2049;SDS011;8478;49.208;8.806;2022-09-28T10:56:34;3.00;;;2.23;;
2049;SDS011;8478;49.208;8.806;2022-09-28T10:59:01;3.00;;;2.60;;
2049;SDS011;8478;49.208;8.806;2022-09-28T11:01:46;3.17;;;2.87;;
2049;SDS011;8478;49.208;8.806;2022-09-28T11:04:12;3.40;;;2.47;;
2049;SDS011;8478;49.208;8.806;2022-09-28T11:06:45;3.13;;;2.77;;
2049;SDS011;8478;49.208;8.806;2022-09-28T11:12:15;2.67;;;2.10;;
2049;SDS011;8478;49.208;8.806;2022-09-28T11:14:44;2.60;;;2.40;;
2049;SDS011;8478;49.208;8.806;2022-09-28T11:22:56;2.97;;;2.50;;
2049;SDS011;8478;49.208;8.806;2022-09-28T11:25:41;3.90;;;2.83;;
2049;SDS011;8478;49.208;8.806;2022-09-28T11:28:12;4.13;;;3.13;;
2049;SDS011;8478;49.208;8.806;2022-09-28T11:30:50;2.97;;;2.63;;
2049;SDS011;8478;49.208;8.806;2022-09-28T11:33:35;2.90;;;2.50;;
2049;SDS011;8478;49.208;8.806;2022-09-28T11:38:38;2.90;;;2.67;;
2049;SDS011;8478;49.208;8.806;2022-09-28T11:44:18;3.70;;;3.40;;
2049;SDS011;8478;49.208;8.806;2022-09-28T11:49:43;3.07;;;2.80;;
2049;SDS011;8478;49.208;8.806;2022-09-28T11:52:23;3.00;;;2.80;;
2049;SDS011;8478;49.208;8.806;2022-09-28T11:54:58;2.90;;;2.70;;
2049;SDS011;8478;49.208;8.806;2022-09-28T11:57:39;3.43;;;2.70;;
2049;SDS011;8478;49.208;8.806;2022-09-28T12:00:12;4.87;;;2.80;;
2049;SDS011;8478;49.208;8.806;2022-09-28T12:02:44;3.80;;;2.43;;
2049;SDS011;8478;49.208;8.806;2022-09-28T12:05:43;2.67;;;2.47;;
2049;SDS011;8478;49.208;8.806;2022-09-28T12:08:14;3.33;;;3.00;;
2049;SDS011;8478;49.208;8.806;2022-09-28T12:10:48;3.10;;;2.57;;
2049;SDS011;8478;49.208;8.806;2022-09-28T12:13:22;2.90;;;2.67;;
2049;SDS011;8478;49.208;8.806;2022-09-28T12:16:05;3.80;;;2.83;;
2049;SDS011;8478;49.208;8.806;2022-09-28T12:18:49;2.63;;;2.43;;
2049;SDS011;8478;49.208;8.806;2022-09-28T12:23:48;3.63;;;3.30;;
2049;SDS011;8478;49.208;8.806;2022-09-28T12:27:02;2.40;;;2.20;;
2049;SDS011;8478;49.208;8.806;2022-09-28T12:29:14;6.73;;;3.20;;
2049;SDS011;8478;49.208;8.806;2022-09-28T12:34:22;4.20;;;3.80;;
2049;SDS011;8478;49.208;8.806;2022-09-28T12:36:53;4.43;;;4.13;;
2049;SDS011;8478;49.208;8.806;2022-09-28T12:42:25;3.90;;;3.53;;
2049;SDS011;8478;49.208;8.806;2022-09-28T12:53:22;9.90;;;8.40;;
2049;SDS011;8478;49.208;8.806;2022-09-28T12:55:52;8.13;;;7.47;;
2049;SDS011;8478;49.208;8.806;2022-09-28T13:07:05;6.90;;;6.30;;
2049;SDS011;8478;49.208;8.806;2022-09-28T13:12:14;8.57;;;7.87;;
2049;SDS011;8478;49.208;8.806;2022-09-28T13:17:41;9.27;;;8.47;;
2049;SDS011;8478;49.208;8.806;2022-09-28T13:20:25;8.87;;;8.07;;
2049;SDS011;8478;49.208;8.806;2022-09-28T13:23:10;7.70;;;7.00;;
2049;SDS011;8478;49.208;8.806;2022-09-28T13:28:43;6.90;;;6.20;;
2049;SDS011;8478;49.208;8.806;2022-09-28T13:31:11;6.90;;;6.40;;
2049;SDS011;8478;49.208;8.806;2022-09-28T13:33:46;5.93;;;5.43;;
2049;SDS011;8478;49.208;8.806;2022-09-28T13:38:57;5.60;;;5.10;;
2049;SDS011;8478;49.208;8.806;2022-09-28T13:41:30;5.30;;;4.90;;
2049;SDS011;8478;49.208;8.806;2022-09-28T13:49:50;4.63;;;4.20;;
2049;SDS011;8478;49.208;8.806;2022-09-28T13:55:17;4.60;;;4.30;;
2049;SDS011;8478;49.208;8.806;2022-09-28T14:08:38;5.30;;;3.53;;
2049;SDS011;8478;49.208;8.806;2022-09-28T14:16:35;3.33;;;3.03;;
2049;SDS011;8478;49.208;8.806;2022-09-28T14:19:11;4.20;;;3.30;;
2049;SDS011;8478;49.208;8.806;2022-09-28T14:30:04;3.93;;;3.10;;
2049;SDS011;8478;49.208;8.806;2022-09-28T14:32:37;3.20;;;3.00;;
2049;SDS011;8478;49.208;8.806;2022-09-28T14:38:10;3.20;;;2.90;;
2049;SDS011;8478;49.208;8.806;2022-09-28T14:41:24;4.13;;;2.80;;
2049;SDS011;8478;49.208;8.806;2022-09-28T14:54:20;3.50;;;3.20;;
2049;SDS011;8478;49.208;8.806;2022-09-28T14:56:53;3.13;;;2.93;;
2049;SDS011;8478;49.208;8.806;2022-09-28T14:59:38;3.70;;;3.10;;
2049;SDS011;8478;49.208;8.806;2022-09-28T15:02:12;3.80;;;3.50;;
2049;SDS011;8478;49.208;8.806;2022-09-28T15:04:44;3.43;;;3.10;;
2049;SDS011;8478;49.208;8.806;2022-09-28T15:07:42;3.40;;;3.10;;
2049;SDS011;8478;49.208;8.806;2022-09-28T15:12:48;2.83;;;2.63;;
2049;SDS011;8478;49.208;8.806;2022-09-28T15:15:24;3.10;;;2.87;;
2049;SDS011;8478;49.208;8.806;2022-09-28T15:21:10;2.50;;;2.30;;
2049;SDS011;8478;49.208;8.806;2022-09-28T15:23:38;4.10;;;3.23;;
2049;SDS011;8478;49.208;8.806;2022-09-28T15:26:06;3.47;;;3.20;;
2049;SDS011;8478;49.208;8.806;2022-09-28T15:28:44;2.87;;;2.67;;
2049;SDS011;8478;49.208;8.806;2022-09-28T15:31:15;3.40;;;3.10;;
2049;SDS011;8478;49.208;8.806;2022-09-28T15:33:43;3.80;;;3.50;;
2049;SDS011;8478;49.208;8.806;2022-09-28T15:36:28;3.20;;;3.00;;
2049;SDS011;8478;49.208;8.806;2022-09-28T15:39:02;2.83;;;2.63;;
2049;SDS011;8478;49.208;8.806;2022-09-28T15:41:30;4.50;;;3.33;;
2049;SDS011;8478;49.208;8.806;2022-09-28T15:44:15;3.90;;;3.17;;
2049;SDS011;8478;49.208;8.806;2022-09-28T15:46:49;3.80;;;3.50;;
2049;SDS011;8478;49.208;8.806;2022-09-28T15:49:43;3.03;;;2.83;;
2049;SDS011;8478;49.208;8.806;2022-09-28T15:52:43;3.30;;;3.00;;
2049;SDS011;8478;49.208;8.806;2022-09-28T15:58:37;3.80;;;3.50;;
2049;SDS011;8478;49.208;8.806;2022-09-28T16:00:39;4.23;;;3.83;;
2049;SDS011;8478;49.208;8.806;2022-09-28T16:08:26;5.00;;;4.57;;
2049;SDS011;8478;49.208;8.806;2022-09-28T16:14:02;4.47;;;4.07;;
2049;SDS011;8478;49.208;8.806;2022-09-28T16:16:35;5.33;;;3.83;;
2049;SDS011;8478;49.208;8.806;2022-09-28T16:19:21;3.77;;;3.47;;
2049;SDS011;8478;49.208;8.806;2022-09-28T16:21:59;4.60;;;4.20;;
2049;SDS011;8478;49.208;8.806;2022-09-28T16:24:28;5.20;;;4.80;;
2049;SDS011;8478;49.208;8.806;2022-09-28T16:26:59;3.80;;;3.43;;
2049;SDS011;8478;49.208;8.806;2022-09-28T16:32:46;4.33;;;3.77;;
2049;SDS011;8478;49.208;8.806;2022-09-28T16:35:06;4.10;;;3.80;;
2049;SDS011;8478;49.208;8.806;2022-09-28T16:37:43;4.00;;;3.20;;
2049;SDS011;8478;49.208;8.806;2022-09-28T16:40:09;4.10;;;3.40;;
2049;SDS011;8478;49.208;8.806;2022-09-28T16:42:36;4.07;;;3.17;;
2049;SDS011;8478;49.208;8.806;2022-09-28T16:45:03;4.87;;;4.30;;
2049;SDS011;8478;49.208;8.806;2022-09-28T16:47:31;4.90;;;4.40;;
2049;SDS011;8478;49.208;8.806;2022-09-28T16:50:09;5.37;;;4.90;;
2049;SDS011;8478;49.208;8.806;2022-09-28T16:52:39;6.17;;;5.57;;
2049;SDS011;8478;49.208;8.806;2022-09-28T16:55:24;6.80;;;6.27;;
2049;SDS011;8478;49.208;8.806;2022-09-28T16:57:49;7.40;;;6.80;;
2049;SDS011;8478;49.208;8.806;2022-09-28T17:00:19;7.10;;;6.60;;
2049;SDS011;8478;49.208;8.806;2022-09-28T17:02:50;9.07;;;8.37;;
2049;SDS011;8478;49.208;8.806;2022-09-28T17:05:17;11.03;;;8.00;;
2049;SDS011;8478;49.208;8.806;2022-09-28T17:07:44;7.10;;;5.60;;
2049;SDS011;8478;49.208;8.806;2022-09-28T17:10:21;6.80;;;6.20;;
2049;SDS011;8478;49.208;8.806;2022-09-28T17:12:53;7.83;;;6.40;;
2049;SDS011;8478;49.208;8.806;2022-09-28T17:15:19;17.73;;;8.80;;
2049;SDS011;8478;49.208;8.806;2022-09-28T17:17:45;36.08;;;11.52;;
2049;SDS011;8478;49.208;8.806;2022-09-28T17:20:16;28.05;;;10.30;;
2049;SDS011;8478;49.208;8.806;2022-09-28T17:22:47;20.67;;;9.13;;
2049;SDS011;8478;49.208;8.806;2022-09-28T17:25:13;18.50;;;8.00;;
2049;SDS011;8478;49.208;8.806;2022-09-28T17:27:39;19.67;;;8.30;;
2049;SDS011;8478;49.208;8.806;2022-09-28T17:30:11;23.73;;;10.90;;
2049;SDS011;8478;49.208;8.806;2022-09-28T17:32:37;19.43;;;10.73;;
2049;SDS011;8478;49.208;8.806;2022-09-28T17:35:09;14.77;;;10.20;;
2049;SDS011;8478;49.208;8.806;2022-09-28T17:37:35;14.68;;;8.43;;
2049;SDS011;8478;49.208;8.806;2022-09-28T17:40:01;13.97;;;9.40;;
2049;SDS011;8478;49.208;8.806;2022-09-28T17:42:36;13.80;;;8.23;;
2049;SDS011;8478;49.208;8.806;2022-09-28T17:45:02;11.63;;;8.63;;
2049;SDS011;8478;49.208;8.806;2022-09-28T17:47:28;8.23;;;7.33;;
2049;SDS011;8478;49.208;8.806;2022-09-28T17:49:54;8.73;;;6.37;;
2049;SDS011;8478;49.208;8.806;2022-09-28T17:52:19;16.73;;;11.07;;
2049;SDS011;8478;49.208;8.806;2022-09-28T17:54:45;19.20;;;13.03;;
2049;SDS011;8478;49.208;8.806;2022-09-28T17:57:10;19.00;;;12.60;;
2049;SDS011;8478;49.208;8.806;2022-09-28T17:59:36;22.77;;;14.57;;
2049;SDS011;8478;49.208;8.806;2022-09-28T18:02:02;26.13;;;14.47;;
2049;SDS011;8478;49.208;8.806;2022-09-28T18:04:27;18.63;;;11.80;;
2049;SDS011;8478;49.208;8.806;2022-09-28T18:06:53;21.93;;;13.93;;
2049;SDS011;8478;49.208;8.806;2022-09-28T18:09:19;20.90;;;17.00;;
2049;SDS011;8478;49.208;8.806;2022-09-28T18:11:48;19.53;;;15.37;;
2049;SDS011;8478;49.208;8.806;2022-09-28T18:14:22;15.27;;;13.27;;
2049;SDS011;8478;49.208;8.806;2022-09-28T18:16:47;12.93;;;11.47;;
2049;SDS011;8478;49.208;8.806;2022-09-28T18:19:13;15.13;;;12.30;;
2049;SDS011;8478;49.208;8.806;2022-09-28T18:21:39;10.90;;;9.03;;
2049;SDS011;8478;49.208;8.806;2022-09-28T18:24:04;13.10;;;10.60;;
2049;SDS011;8478;49.208;8.806;2022-09-28T18:26:30;8.57;;;7.77;;
2049;SDS011;8478;49.208;8.806;2022-09-28T18:28:55;7.60;;;6.27;;
2049;SDS011;8478;49.208;8.806;2022-09-28T18:31:21;6.23;;;5.67;;
2049;SDS011;8478;49.208;8.806;2022-09-28T18:33:47;7.93;;;5.40;;
2049;SDS011;8478;49.208;8.806;2022-09-28T18:36:13;19.07;;;9.23;;
2049;SDS011;8478;49.208;8.806;2022-09-28T18:38:38;8.60;;;6.50;;
2049;SDS011;8478;49.208;8.806;2022-09-28T18:41:08;15.30;;;10.30;;
2049;SDS011;8478;49.208;8.806;2022-09-28T18:43:34;6.90;;;6.20;;
2049;SDS011;8478;49.208;8.806;2022-09-28T18:46:09;7.20;;;4.27;;